sensor_id;sensor_type;location;lat;lon;timestamp;pressure;altitude;pressure_sealevel;temperature;humidity
70256;BME280;57669;52.624;-1.688;2022-12-18T00:00:42;101527.13;;;-1.62;56.83
70256;BME280;57669;52.624;-1.688;2022-12-18T00:03:07;101523.17;;;-1.32;56.66
70256;BME280;57669;52.624;-1.688;2022-12-18T00:05:33;101522.72;;;-1.64;56.54
70256;BME280;57669;52.624;-1.688;2022-12-18T00:07:58;101522.70;;;-1.10;55.50
70256;BME280;57669;52.624;-1.688;2022-12-18T00:10:24;101534.82;;;-0.75;53.97
70256;BME280;57669;52.624;-1.688;2022-12-18T00:12:49;101536.01;;;-0.51;53.10
70256;BME280;57669;52.624;-1.688;2022-12-18T00:15:15;101539.69;;;0.03;52.28
70256;BME280;57669;52.624;-1.688;2022-12-18T00:17:40;101534.41;;;-1.50;55.66
70256;BME280;57669;52.624;-1.688;2022-12-18T00:20:07;101533.68;;;-0.82;54.21
70256;BME280;57669;52.624;-1.688;2022-12-18T00:22:32;101521.92;;;-0.72;53.37
70256;BME280;57669;52.624;-1.688;2022-12-18T00:24:57;101518.06;;;-0.71;53.01
70256;BME280;57669;52.624;-1.688;2022-12-18T00:27:23;101509.23;;;-0.15;53.31
70256;BME280;57669;52.624;-1.688;2022-12-18T00:29:48;101507.94;;;-0.28;53.31
70256;BME280;57669;52.624;-1.688;2022-12-18T00:32:14;101509.82;;;-0.47;53.37
70256;BME280;57669;52.624;-1.688;2022-12-18T00:34:39;101512.24;;;-0.77;53.56
70256;BME280;57669;52.624;-1.688;2022-12-18T00:37:05;101509.43;;;-0.74;54.31
70256;BME280;57669;52.624;-1.688;2022-12-18T00:39:31;101512.84;;;-0.31;53.81
70256;BME280;57669;52.624;-1.688;2022-12-18T00:41:57;101511.36;;;-1.21;56.58
70256;BME280;57669;52.624;-1.688;2022-12-18T00:44:23;101516.90;;;-1.31;56.11
70256;BME280;57669;52.624;-1.688;2022-12-18T00:46:48;101512.75;;;-1.00;56.92
70256;BME280;57669;52.624;-1.688;2022-12-18T00:49:15;101518.06;;;-0.86;56.61
70256;BME280;57669;52.624;-1.688;2022-12-18T00:51:40;101520.60;;;-1.24;56.80
70256;BME280;57669;52.624;-1.688;2022-12-18T00:54:05;101516.89;;;-0.89;55.41
70256;BME280;57669;52.624;-1.688;2022-12-18T00:56:31;101514.05;;;-1.16;56.38
70256;BME280;57669;52.624;-1.688;2022-12-18T00:58:56;101513.79;;;-0.77;56.11
70256;BME280;57669;52.624;-1.688;2022-12-18T01:01:22;101505.98;;;-1.03;55.46
70256;BME280;57669;52.624;-1.688;2022-12-18T01:03:47;101503.18;;;-0.84;55.24
70256;BME280;57669;52.624;-1.688;2022-12-18T01:06:14;101500.95;;;-1.02;54.67
70256;BME280;57669;52.624;-1.688;2022-12-18T01:08:38;101499.42;;;-0.57;54.40
70256;BME280;57669;52.624;-1.688;2022-12-18T01:11:07;101498.99;;;0.01;53.47
70256;BME280;57669;52.624;-1.688;2022-12-18T01:13:28;101500.04;;;-0.90;54.31
70256;BME280;57669;52.624;-1.688;2022-12-18T01:15:54;101502.96;;;-0.88;53.85
70256;BME280;57669;52.624;-1.688;2022-12-18T01:18:19;101506.52;;;-0.28;53.18
70256;BME280;57669;52.624;-1.688;2022-12-18T01:20:44;101501.89;;;-0.37;52.98
70256;BME280;57669;52.624;-1.688;2022-12-18T01:23:10;101501.31;;;-0.15;52.55
70256;BME280;57669;52.624;-1.688;2022-12-18T01:25:36;101500.74;;;-0.63;52.84
70256;BME280;57669;52.624;-1.688;2022-12-18T01:28:00;101501.42;;;-0.87;53.60
70256;BME280;57669;52.624;-1.688;2022-12-18T01:30:26;101499.50;;;-0.77;53.51
70256;BME280;57669;52.624;-1.688;2022-12-18T01:32:52;101490.63;;;-0.71;53.59
70256;BME280;57669;52.624;-1.688;2022-12-18T01:35:18;101488.71;;;-0.61;53.42
70256;BME280;57669;52.624;-1.688;2022-12-18T01:37:44;101486.43;;;-0.67;53.07
70256;BME280;57669;52.624;-1.688;2022-12-18T01:40:10;101483.44;;;-0.77;53.40
70256;BME280;57669;52.624;-1.688;2022-12-18T01:42:35;101484.69;;;-0.22;52.71
70256;BME280;57669;52.624;-1.688;2022-12-18T01:45:04;101479.72;;;-0.43;52.77
70256;BME280;57669;52.624;-1.688;2022-12-18T01:47:30;101482.31;;;-0.87;53.47
70256;BME280;57669;52.624;-1.688;2022-12-18T01:49:51;101487.62;;;-0.71;54.07
70256;BME280;57669;52.624;-1.688;2022-12-18T01:52:17;101482.24;;;-1.21;55.75
70256;BME280;57669;52.624;-1.688;2022-12-18T01:54:42;101484.92;;;-1.54;56.09
70256;BME280;57669;52.624;-1.688;2022-12-18T01:57:07;101481.40;;;-1.76;57.13
70256;BME280;57669;52.624;-1.688;2022-12-18T01:59:33;101483.28;;;-0.77;55.32
70256;BME280;57669;52.624;-1.688;2022-12-18T02:04:26;101492.94;;;-1.88;58.79
70256;BME280;57669;52.624;-1.688;2022-12-18T02:06:52;101493.24;;;-2.92;61.21
70256;BME280;57669;52.624;-1.688;2022-12-18T02:09:17;101492.51;;;-1.90;59.43
70256;BME280;57669;52.624;-1.688;2022-12-18T02:11:44;101498.86;;;-1.39;58.87
70256;BME280;57669;52.624;-1.688;2022-12-18T02:14:13;101507.93;;;-2.32;59.85
70256;BME280;57669;52.624;-1.688;2022-12-18T02:16:34;101511.70;;;-1.22;57.65
70256;BME280;57669;52.624;-1.688;2022-12-18T02:18:58;101509.99;;;-1.85;58.47
70256;BME280;57669;52.624;-1.688;2022-12-18T02:21:28;101509.66;;;-1.41;57.03
70256;BME280;57669;52.624;-1.688;2022-12-18T02:23:51;101515.50;;;-0.80;56.89
70256;BME280;57669;52.624;-1.688;2022-12-18T02:26:16;101514.19;;;-0.76;57.09
70256;BME280;57669;52.624;-1.688;2022-12-18T02:28:45;101518.20;;;-1.31;57.63
70256;BME280;57669;52.624;-1.688;2022-12-18T02:31:05;101525.08;;;-1.66;57.74
70256;BME280;57669;52.624;-1.688;2022-12-18T02:33:29;101528.18;;;-1.19;57.77
70256;BME280;57669;52.624;-1.688;2022-12-18T02:35:55;101534.92;;;-1.39;58.13
70256;BME280;57669;52.624;-1.688;2022-12-18T02:38:19;101536.42;;;-1.69;58.87
70256;BME280;57669;52.624;-1.688;2022-12-18T02:40:47;101529.38;;;-1.49;57.71
70256;BME280;57669;52.624;-1.688;2022-12-18T02:43:11;101526.93;;;-1.56;57.23
70256;BME280;57669;52.624;-1.688;2022-12-18T02:48:01;101515.36;;;-0.75;58.05
70256;BME280;57669;52.624;-1.688;2022-12-18T02:50:32;101513.35;;;-1.16;57.99
70256;BME280;57669;52.624;-1.688;2022-12-18T02:52:58;101506.73;;;-1.71;59.10
70256;BME280;57669;52.624;-1.688;2022-12-18T02:55:23;101506.02;;;-1.66;58.88
70256;BME280;57669;52.624;-1.688;2022-12-18T02:57:48;101503.19;;;-1.81;59.78
70256;BME280;57669;52.624;-1.688;2022-12-18T03:00:12;101490.31;;;-1.60;59.84
70256;BME280;57669;52.624;-1.688;2022-12-18T03:02:39;101490.16;;;-1.25;59.24
70256;BME280;57669;52.624;-1.688;2022-12-18T03:05:04;101493.42;;;-1.04;59.14
70256;BME280;57669;52.624;-1.688;2022-12-18T03:07:34;101493.34;;;-1.36;59.27
70256;BME280;57669;52.624;-1.688;2022-12-18T03:09:52;101496.26;;;-2.21;60.89
70256;BME280;57669;52.624;-1.688;2022-12-18T03:12:20;101485.00;;;-2.13;61.53
70256;BME280;57669;52.624;-1.688;2022-12-18T03:14:42;101479.76;;;-1.30;59.79
70256;BME280;57669;52.624;-1.688;2022-12-18T03:17:10;101473.30;;;-1.37;60.69
70256;BME280;57669;52.624;-1.688;2022-12-18T03:19:33;101464.18;;;-1.18;59.46
70256;BME280;57669;52.624;-1.688;2022-12-18T03:22:00;101462.19;;;-2.22;63.09
70256;BME280;57669;52.624;-1.688;2022-12-18T03:24:24;101456.22;;;-1.75;61.05
70256;BME280;57669;52.624;-1.688;2022-12-18T03:26:52;101452.46;;;-1.69;60.21
70256;BME280;57669;52.624;-1.688;2022-12-18T03:29:21;101447.76;;;-1.17;59.61
70256;BME280;57669;52.624;-1.688;2022-12-18T03:31:40;101450.39;;;-1.14;59.18
70256;BME280;57669;52.624;-1.688;2022-12-18T03:34:09;101449.63;;;-0.99;58.26
70256;BME280;57669;52.624;-1.688;2022-12-18T03:36:30;101443.90;;;-1.15;57.95
70256;BME280;57669;52.624;-1.688;2022-12-18T03:38:55;101439.60;;;-0.89;56.74
70256;BME280;57669;52.624;-1.688;2022-12-18T03:41:27;101435.25;;;-0.67;56.48
70256;BME280;57669;52.624;-1.688;2022-12-18T03:43:50;101430.38;;;-0.22;56.30
70256;BME280;57669;52.624;-1.688;2022-12-18T03:46:16;101423.60;;;-1.04;56.88
70256;BME280;57669;52.624;-1.688;2022-12-18T03:48:40;101421.45;;;-0.73;56.56
70256;BME280;57669;52.624;-1.688;2022-12-18T03:51:06;101422.27;;;0.12;56.15
70256;BME280;57669;52.624;-1.688;2022-12-18T03:53:34;101428.77;;;-1.53;59.33
70256;BME280;57669;52.624;-1.688;2022-12-18T03:55:53;101427.64;;;-1.20;59.12
70256;BME280;57669;52.624;-1.688;2022-12-18T03:58:21;101420.70;;;-0.56;57.69
70256;BME280;57669;52.624;-1.688;2022-12-18T04:00:45;101412.68;;;-0.53;58.56
70256;BME280;57669;52.624;-1.688;2022-12-18T04:03:10;101411.59;;;-0.92;58.28
70256;BME280;57669;52.624;-1.688;2022-12-18T04:05:36;101407.81;;;-0.59;56.66
70256;BME280;57669;52.624;-1.688;2022-12-18T04:08:02;101402.46;;;-0.74;57.32
70256;BME280;57669;52.624;-1.688;2022-12-18T04:10:27;101394.10;;;-0.66;56.20
70256;BME280;57669;52.624;-1.688;2022-12-18T04:12:55;101390.85;;;0.19;54.89
70256;BME280;57669;52.624;-1.688;2022-12-18T04:15:17;101385.25;;;0.01;55.15
70256;BME280;57669;52.624;-1.688;2022-12-18T04:17:47;101372.84;;;-0.61;54.92
70256;BME280;57669;52.624;-1.688;2022-12-18T04:20:14;101367.12;;;0.03;54.41
70256;BME280;57669;52.624;-1.688;2022-12-18T04:22:33;101363.63;;;-0.11;54.22
70256;BME280;57669;52.624;-1.688;2022-12-18T04:24:59;101362.80;;;0.02;53.59
70256;BME280;57669;52.624;-1.688;2022-12-18T04:27:24;101361.52;;;-0.47;53.40
70256;BME280;57669;52.624;-1.688;2022-12-18T04:29:50;101359.93;;;-0.17;53.78
70256;BME280;57669;52.624;-1.688;2022-12-18T04:32:16;101360.34;;;-1.11;57.15
70256;BME280;57669;52.624;-1.688;2022-12-18T04:34:41;101354.13;;;-0.74;56.46
70256;BME280;57669;52.624;-1.688;2022-12-18T04:37:06;101351.11;;;-0.72;57.36
70256;BME280;57669;52.624;-1.688;2022-12-18T04:39:31;101336.90;;;-0.87;57.32
70256;BME280;57669;52.624;-1.688;2022-12-18T04:41:57;101331.28;;;-0.80;56.30
70256;BME280;57669;52.624;-1.688;2022-12-18T04:44:23;101326.99;;;-0.89;56.74
70256;BME280;57669;52.624;-1.688;2022-12-18T04:46:48;101310.37;;;-0.45;56.77
70256;BME280;57669;52.624;-1.688;2022-12-18T04:49:13;101303.88;;;-0.72;57.43
70256;BME280;57669;52.624;-1.688;2022-12-18T04:51:39;101304.43;;;-0.89;58.42
70256;BME280;57669;52.624;-1.688;2022-12-18T04:54:04;101312.41;;;-0.83;58.82
70256;BME280;57669;52.624;-1.688;2022-12-18T04:56:31;101307.12;;;-1.00;59.07
70256;BME280;57669;52.624;-1.688;2022-12-18T04:58:54;101298.12;;;-1.32;59.26
70256;BME280;57669;52.624;-1.688;2022-12-18T05:01:19;101287.01;;;-1.09;59.31
70256;BME280;57669;52.624;-1.688;2022-12-18T05:03:45;101279.51;;;-1.21;60.00
70256;BME280;57669;52.624;-1.688;2022-12-18T05:06:11;101271.10;;;-1.94;61.41
70256;BME280;57669;52.624;-1.688;2022-12-18T05:08:36;101260.98;;;-1.19;60.08
70256;BME280;57669;52.624;-1.688;2022-12-18T05:11:03;101247.87;;;-1.17;59.59
70256;BME280;57669;52.624;-1.688;2022-12-18T05:13:27;101241.00;;;-0.64;57.84
70256;BME280;57669;52.624;-1.688;2022-12-18T05:15:53;101240.78;;;-0.37;56.56
70256;BME280;57669;52.624;-1.688;2022-12-18T05:18:23;101230.95;;;-1.13;56.58
70256;BME280;57669;52.624;-1.688;2022-12-18T05:20:44;101233.42;;;-0.79;56.30
70256;BME280;57669;52.624;-1.688;2022-12-18T05:23:08;101235.79;;;-0.58;55.59
70256;BME280;57669;52.624;-1.688;2022-12-18T05:25:34;101239.86;;;-0.95;57.33
70256;BME280;57669;52.624;-1.688;2022-12-18T05:27:59;101250.37;;;-0.37;56.31
70256;BME280;57669;52.624;-1.688;2022-12-18T05:30:25;101261.41;;;-0.18;55.71
70256;BME280;57669;52.624;-1.688;2022-12-18T05:32:50;101260.72;;;-0.45;54.93
70256;BME280;57669;52.624;-1.688;2022-12-18T05:35:15;101258.02;;;-0.41;57.31
70256;BME280;57669;52.624;-1.688;2022-12-18T05:37:40;101273.82;;;-0.88;57.01
70256;BME280;57669;52.624;-1.688;2022-12-18T05:40:06;101277.89;;;-0.46;56.27
70256;BME280;57669;52.624;-1.688;2022-12-18T05:42:31;101288.29;;;-0.82;58.13
70256;BME280;57669;52.624;-1.688;2022-12-18T05:44:56;101289.18;;;-1.05;58.38
70256;BME280;57669;52.624;-1.688;2022-12-18T05:47:21;101286.42;;;-0.96;58.17
70256;BME280;57669;52.624;-1.688;2022-12-18T05:49:47;101277.88;;;-1.71;58.48
70256;BME280;57669;52.624;-1.688;2022-12-18T05:52:12;101273.08;;;-0.57;56.17
70256;BME280;57669;52.624;-1.688;2022-12-18T05:54:37;101273.84;;;-0.96;56.92
70256;BME280;57669;52.624;-1.688;2022-12-18T05:57:03;101270.23;;;-0.17;55.34
70256;BME280;57669;52.624;-1.688;2022-12-18T05:59:28;101265.74;;;-0.18;55.39
70256;BME280;57669;52.624;-1.688;2022-12-18T06:01:54;101250.86;;;-0.46;55.85
70256;BME280;57669;52.624;-1.688;2022-12-18T06:04:19;101244.42;;;-0.44;55.28
70256;BME280;57669;52.624;-1.688;2022-12-18T06:06:44;101234.56;;;0.18;54.52
70256;BME280;57669;52.624;-1.688;2022-12-18T06:09:09;101233.10;;;-0.70;55.32
70256;BME280;57669;52.624;-1.688;2022-12-18T06:11:37;101229.68;;;-0.22;55.17
70256;BME280;57669;52.624;-1.688;2022-12-18T06:14:01;101225.96;;;-0.26;54.66
70256;BME280;57669;52.624;-1.688;2022-12-18T06:16:27;101230.43;;;0.29;54.16
70256;BME280;57669;52.624;-1.688;2022-12-18T06:18:52;101229.42;;;-0.51;55.72
70256;BME280;57669;52.624;-1.688;2022-12-18T06:21:17;101227.09;;;-0.59;55.06
70256;BME280;57669;52.624;-1.688;2022-12-18T06:23:42;101226.77;;;-0.19;54.99
70256;BME280;57669;52.624;-1.688;2022-12-18T06:26:10;101227.00;;;-0.57;55.13
70256;BME280;57669;52.624;-1.688;2022-12-18T06:28:34;101231.58;;;-0.35;54.48
70256;BME280;57669;52.624;-1.688;2022-12-18T06:30:59;101232.28;;;0.00;54.13
70256;BME280;57669;52.624;-1.688;2022-12-18T06:33:26;101233.05;;;0.39;53.40
70256;BME280;57669;52.624;-1.688;2022-12-18T06:35:49;101226.52;;;0.33;54.07
70256;BME280;57669;52.624;-1.688;2022-12-18T06:38:16;101229.79;;;-0.98;57.19
70256;BME280;57669;52.624;-1.688;2022-12-18T06:40:41;101229.01;;;-0.97;57.74
70256;BME280;57669;52.624;-1.688;2022-12-18T06:43:07;101228.96;;;-1.30;58.84
70256;BME280;57669;52.624;-1.688;2022-12-18T06:45:32;101222.02;;;-0.88;58.25
70256;BME280;57669;52.624;-1.688;2022-12-18T06:47:58;101214.27;;;-0.99;56.88
70256;BME280;57669;52.624;-1.688;2022-12-18T06:50:23;101219.25;;;-0.79;57.37
70256;BME280;57669;52.624;-1.688;2022-12-18T06:52:48;101218.23;;;-0.98;57.27
70256;BME280;57669;52.624;-1.688;2022-12-18T06:55:13;101211.77;;;-0.36;55.49
70256;BME280;57669;52.624;-1.688;2022-12-18T06:57:39;101200.56;;;-0.41;54.70
70256;BME280;57669;52.624;-1.688;2022-12-18T07:00:06;101188.41;;;-1.39;56.66
70256;BME280;57669;52.624;-1.688;2022-12-18T07:02:30;101187.28;;;-0.10;55.31
70256;BME280;57669;52.624;-1.688;2022-12-18T07:04:55;101185.51;;;-0.71;57.48
70256;BME280;57669;52.624;-1.688;2022-12-18T07:07:21;101173.21;;;-0.74;56.86
70256;BME280;57669;52.624;-1.688;2022-12-18T07:09:48;101174.23;;;-0.86;56.85
70256;BME280;57669;52.624;-1.688;2022-12-18T07:12:12;101171.38;;;-0.73;57.89
70256;BME280;57669;52.624;-1.688;2022-12-18T07:14:37;101181.99;;;-0.77;57.40
70256;BME280;57669;52.624;-1.688;2022-12-18T07:17:03;101182.12;;;-0.70;56.85
70256;BME280;57669;52.624;-1.688;2022-12-18T07:19:29;101179.22;;;-1.02;58.59
70256;BME280;57669;52.624;-1.688;2022-12-18T07:24:20;101187.23;;;-0.55;56.42
70256;BME280;57669;52.624;-1.688;2022-12-18T07:26:46;101188.58;;;-0.89;57.20
70256;BME280;57669;52.624;-1.688;2022-12-18T07:29:10;101197.60;;;-0.41;57.03
70256;BME280;57669;52.624;-1.688;2022-12-18T07:31:36;101197.13;;;-0.03;55.43
70256;BME280;57669;52.624;-1.688;2022-12-18T07:34:01;101199.78;;;0.08;54.54
70256;BME280;57669;52.624;-1.688;2022-12-18T07:36:26;101200.15;;;-0.46;55.93
70256;BME280;57669;52.624;-1.688;2022-12-18T07:38:52;101201.45;;;-0.74;55.98
70256;BME280;57669;52.624;-1.688;2022-12-18T07:41:17;101197.19;;;-0.49;56.85
70256;BME280;57669;52.624;-1.688;2022-12-18T07:43:42;101203.90;;;-0.66;57.34
70256;BME280;57669;52.624;-1.688;2022-12-18T07:46:09;101194.57;;;-0.11;56.16
70256;BME280;57669;52.624;-1.688;2022-12-18T07:48:33;101195.18;;;-0.18;56.33
70256;BME280;57669;52.624;-1.688;2022-12-18T07:51:00;101197.16;;;-0.46;58.31
70256;BME280;57669;52.624;-1.688;2022-12-18T07:53:25;101196.11;;;-0.36;57.17
70256;BME280;57669;52.624;-1.688;2022-12-18T07:55:55;101196.59;;;-1.30;59.99
70256;BME280;57669;52.624;-1.688;2022-12-18T07:58:16;101210.89;;;-1.15;59.08
70256;BME280;57669;52.624;-1.688;2022-12-18T08:00:40;101214.88;;;-1.17;59.75
70256;BME280;57669;52.624;-1.688;2022-12-18T08:03:06;101201.25;;;-1.86;61.20
70256;BME280;57669;52.624;-1.688;2022-12-18T08:05:31;101187.64;;;-1.31;59.26
70256;BME280;57669;52.624;-1.688;2022-12-18T08:07:58;101195.80;;;-1.70;59.96
70256;BME280;57669;52.624;-1.688;2022-12-18T08:10:22;101190.61;;;-0.86;58.18
70256;BME280;57669;52.624;-1.688;2022-12-18T08:12:49;101203.95;;;-0.31;56.01
70256;BME280;57669;52.624;-1.688;2022-12-18T08:15:13;101208.28;;;-1.29;57.60
70256;BME280;57669;52.624;-1.688;2022-12-18T08:17:39;101211.82;;;-0.60;56.84
70256;BME280;57669;52.624;-1.688;2022-12-18T08:20:05;101201.94;;;-0.87;57.65
70256;BME280;57669;52.624;-1.688;2022-12-18T08:22:30;101214.81;;;-0.66;57.07
70256;BME280;57669;52.624;-1.688;2022-12-18T08:24:56;101216.84;;;-1.03;57.40
70256;BME280;57669;52.624;-1.688;2022-12-18T08:27:21;101210.16;;;-0.10;56.05
70256;BME280;57669;52.624;-1.688;2022-12-18T08:29:47;101186.71;;;-0.73;56.96
70256;BME280;57669;52.624;-1.688;2022-12-18T08:32:12;101187.15;;;-0.46;56.24
70256;BME280;57669;52.624;-1.688;2022-12-18T08:34:38;101181.52;;;-0.89;57.91
70256;BME280;57669;52.624;-1.688;2022-12-18T08:37:03;101174.98;;;-0.66;56.73
70256;BME280;57669;52.624;-1.688;2022-12-18T08:39:28;101195.52;;;-0.79;56.97
70256;BME280;57669;52.624;-1.688;2022-12-18T08:41:54;101186.41;;;-0.81;57.28
70256;BME280;57669;52.624;-1.688;2022-12-18T08:44:20;101161.65;;;-0.36;56.28
70256;BME280;57669;52.624;-1.688;2022-12-18T08:46:45;101158.34;;;-0.12;55.57
70256;BME280;57669;52.624;-1.688;2022-12-18T08:49:12;101159.46;;;-0.04;55.06
70256;BME280;57669;52.624;-1.688;2022-12-18T08:51:37;101154.67;;;0.14;54.46
70256;BME280;57669;52.624;-1.688;2022-12-18T08:54:02;101151.74;;;0.77;53.95
70256;BME280;57669;52.624;-1.688;2022-12-18T08:56:27;101148.40;;;0.14;54.38
70256;BME280;57669;52.624;-1.688;2022-12-18T08:58:54;101152.30;;;0.09;55.34
70256;BME280;57669;52.624;-1.688;2022-12-18T09:01:19;101143.32;;;0.13;55.98
70256;BME280;57669;52.624;-1.688;2022-12-18T09:03:44;101143.01;;;-0.11;55.96
70256;BME280;57669;52.624;-1.688;2022-12-18T09:06:13;101140.39;;;0.28;54.42
70256;BME280;57669;52.624;-1.688;2022-12-18T09:08:35;101127.00;;;0.18;54.74
70256;BME280;57669;52.624;-1.688;2022-12-18T09:11:00;101115.23;;;0.08;54.55
70256;BME280;57669;52.624;-1.688;2022-12-18T09:13:25;101111.44;;;0.14;55.39
70256;BME280;57669;52.624;-1.688;2022-12-18T09:15:52;101121.45;;;0.42;54.84
70256;BME280;57669;52.624;-1.688;2022-12-18T09:18:18;101122.14;;;0.25;54.46
70256;BME280;57669;52.624;-1.688;2022-12-18T09:20:41;101110.19;;;0.63;53.68
70256;BME280;57669;52.624;-1.688;2022-12-18T09:23:07;101101.61;;;0.61;55.27
70256;BME280;57669;52.624;-1.688;2022-12-18T09:25:33;101095.95;;;0.26;56.10
70256;BME280;57669;52.624;-1.688;2022-12-18T09:27:59;101087.21;;;-0.20;55.98
70256;BME280;57669;52.624;-1.688;2022-12-18T09:30:24;101085.22;;;0.22;55.20
70256;BME280;57669;52.624;-1.688;2022-12-18T09:32:49;101089.46;;;-0.03;55.59
70256;BME280;57669;52.624;-1.688;2022-12-18T09:35:14;101092.77;;;0.59;54.60
70256;BME280;57669;52.624;-1.688;2022-12-18T09:37:39;101092.83;;;0.17;56.39
70256;BME280;57669;52.624;-1.688;2022-12-18T09:40:06;101086.48;;;0.90;54.59
70256;BME280;57669;52.624;-1.688;2022-12-18T09:42:30;101081.71;;;0.22;54.94
70256;BME280;57669;52.624;-1.688;2022-12-18T09:44:55;101073.91;;;-0.05;55.46
70256;BME280;57669;52.624;-1.688;2022-12-18T09:47:23;101067.43;;;-0.38;58.02
70256;BME280;57669;52.624;-1.688;2022-12-18T09:49:47;101061.01;;;-0.22;58.14
70256;BME280;57669;52.624;-1.688;2022-12-18T09:52:17;101049.76;;;-0.28;58.41
70256;BME280;57669;52.624;-1.688;2022-12-18T09:54:39;101048.10;;;-0.26;58.30
70256;BME280;57669;52.624;-1.688;2022-12-18T09:57:04;101049.50;;;-0.66;59.23
70256;BME280;57669;52.624;-1.688;2022-12-18T09:59:33;101041.52;;;-0.34;58.93
70256;BME280;57669;52.624;-1.688;2022-12-18T10:01:54;101029.95;;;-0.46;59.22
70256;BME280;57669;52.624;-1.688;2022-12-18T10:04:19;101020.24;;;-0.94;60.68
70256;BME280;57669;52.624;-1.688;2022-12-18T10:06:49;101012.32;;;-1.26;60.98
70256;BME280;57669;52.624;-1.688;2022-12-18T10:09:19;101005.38;;;-1.10;61.76
70256;BME280;57669;52.624;-1.688;2022-12-18T10:11:43;101001.51;;;-1.02;61.39
70256;BME280;57669;52.624;-1.688;2022-12-18T10:14:07;100996.34;;;-1.22;61.36
70256;BME280;57669;52.624;-1.688;2022-12-18T10:16:32;100990.31;;;-1.23;61.98
70256;BME280;57669;52.624;-1.688;2022-12-18T10:19:04;100989.39;;;-0.71;60.59
70256;BME280;57669;52.624;-1.688;2022-12-18T10:21:20;100983.60;;;-0.65;60.38
70256;BME280;57669;52.624;-1.688;2022-12-18T10:23:48;100987.23;;;-0.98;60.95
70256;BME280;57669;52.624;-1.688;2022-12-18T10:26:10;100980.65;;;-1.09;61.56
70256;BME280;57669;52.624;-1.688;2022-12-18T10:28:37;100978.84;;;-0.67;61.89
70256;BME280;57669;52.624;-1.688;2022-12-18T10:30:59;100978.45;;;-0.56;60.78
70256;BME280;57669;52.624;-1.688;2022-12-18T10:33:29;100974.84;;;-0.75;61.75
70256;BME280;57669;52.624;-1.688;2022-12-18T10:35:51;100960.29;;;-0.49;61.95
70256;BME280;57669;52.624;-1.688;2022-12-18T10:38:26;100941.98;;;-0.83;61.73
70256;BME280;57669;52.624;-1.688;2022-12-18T10:40:48;100922.49;;;-0.76;62.04
70256;BME280;57669;52.624;-1.688;2022-12-18T10:43:14;100920.42;;;-0.46;60.93
70256;BME280;57669;52.624;-1.688;2022-12-18T10:45:32;100925.10;;;0.04;60.17
70256;BME280;57669;52.624;-1.688;2022-12-18T10:47:57;100931.56;;;-0.42;62.03
70256;BME280;57669;52.624;-1.688;2022-12-18T10:50:26;100925.90;;;-0.36;61.69
70256;BME280;57669;52.624;-1.688;2022-12-18T10:52:53;100919.23;;;-0.22;61.42
70256;BME280;57669;52.624;-1.688;2022-12-18T10:55:16;100909.41;;;-0.04;61.65
70256;BME280;57669;52.624;-1.688;2022-12-18T10:57:39;100913.87;;;0.16;59.73
70256;BME280;57669;52.624;-1.688;2022-12-18T11:02:34;100901.49;;;0.11;59.83
70256;BME280;57669;52.624;-1.688;2022-12-18T11:04:55;100892.58;;;-0.13;61.13
70256;BME280;57669;52.624;-1.688;2022-12-18T11:12:17;100869.81;;;-1.00;64.44
70256;BME280;57669;52.624;-1.688;2022-12-18T11:14:43;100867.47;;;-0.92;62.73
70256;BME280;57669;52.624;-1.688;2022-12-18T11:17:02;100862.51;;;-1.02;63.26
70256;BME280;57669;52.624;-1.688;2022-12-18T11:19:33;100850.06;;;-1.09;63.68
70256;BME280;57669;52.624;-1.688;2022-12-18T11:22:01;100855.12;;;-0.56;62.24
70256;BME280;57669;52.624;-1.688;2022-12-18T11:24:22;100855.37;;;-0.72;62.40
70256;BME280;57669;52.624;-1.688;2022-12-18T11:26:44;100862.24;;;-0.49;61.55
70256;BME280;57669;52.624;-1.688;2022-12-18T11:29:16;100864.63;;;-0.65;63.15
70256;BME280;57669;52.624;-1.688;2022-12-18T11:31:35;100861.90;;;-0.68;63.45
70256;BME280;57669;52.624;-1.688;2022-12-18T11:34:05;100849.94;;;-0.61;62.67
70256;BME280;57669;52.624;-1.688;2022-12-18T11:36:29;100850.25;;;-0.82;64.04
70256;BME280;57669;52.624;-1.688;2022-12-18T11:38:54;100841.38;;;-0.55;62.60
70256;BME280;57669;52.624;-1.688;2022-12-18T11:41:23;100833.38;;;-0.47;61.33
70256;BME280;57669;52.624;-1.688;2022-12-18T11:43:48;100828.12;;;0.86;60.59
70256;BME280;57669;52.624;-1.688;2022-12-18T11:46:11;100816.48;;;-0.15;61.28
70256;BME280;57669;52.624;-1.688;2022-12-18T11:48:38;100811.59;;;-0.53;62.73
70256;BME280;57669;52.624;-1.688;2022-12-18T11:51:01;100806.68;;;-0.65;63.93
70256;BME280;57669;52.624;-1.688;2022-12-18T11:53:26;100800.85;;;-0.27;63.59
70256;BME280;57669;52.624;-1.688;2022-12-18T11:56:02;100803.61;;;-0.80;64.75
70256;BME280;57669;52.624;-1.688;2022-12-18T11:58:27;100798.85;;;0.03;61.88
70256;BME280;57669;52.624;-1.688;2022-12-18T12:00:45;100792.93;;;-0.43;62.47
70256;BME280;57669;52.624;-1.688;2022-12-18T12:05:41;100774.27;;;-0.90;64.38
70256;BME280;57669;52.624;-1.688;2022-12-18T12:08:04;100766.83;;;-0.53;63.39
70256;BME280;57669;52.624;-1.688;2022-12-18T12:10:33;100759.88;;;0.08;61.40
70256;BME280;57669;52.624;-1.688;2022-12-18T12:12:59;100744.93;;;0.25;60.89
70256;BME280;57669;52.624;-1.688;2022-12-18T12:15:21;100738.55;;;0.55;61.27
70256;BME280;57669;52.624;-1.688;2022-12-18T12:17:44;100741.31;;;0.04;62.27
70256;BME280;57669;52.624;-1.688;2022-12-18T12:20:12;100732.68;;;0.21;62.72
70256;BME280;57669;52.624;-1.688;2022-12-18T12:22:36;100725.58;;;-0.08;63.65
70256;BME280;57669;52.624;-1.688;2022-12-18T12:25:05;100713.77;;;0.00;62.80
70256;BME280;57669;52.624;-1.688;2022-12-18T12:27:26;100715.12;;;0.47;61.69
70256;BME280;57669;52.624;-1.688;2022-12-18T12:29:54;100717.08;;;-0.07;63.11
70256;BME280;57669;52.624;-1.688;2022-12-18T12:32:22;100710.02;;;-0.37;64.51
70256;BME280;57669;52.624;-1.688;2022-12-18T12:34:44;100699.76;;;-0.38;64.96
70256;BME280;57669;52.624;-1.688;2022-12-18T12:37:13;100702.71;;;-0.76;65.50
70256;BME280;57669;52.624;-1.688;2022-12-18T12:39:31;100704.21;;;-0.34;65.06
70256;BME280;57669;52.624;-1.688;2022-12-18T12:41:55;100701.61;;;-0.46;65.10
70256;BME280;57669;52.624;-1.688;2022-12-18T12:44:23;100700.58;;;-0.73;66.03
70256;BME280;57669;52.624;-1.688;2022-12-18T12:46:47;100679.22;;;0.15;64.71